Time;durP1;ratioP1;P1;durP2;ratioP2;P2;SDS_P1;SDS_P2;PMS_P1;PMS_P2;Temp;Humidity;BMP_temperature;BMP_pressure;BME280_temperature;BME280_humidity;BME280_pressure;Samples;Min_cycle;Max_cycle;Signal;HPM_P1;HPM_P2
2022/12/13 00:01:39;;;;;;;25.10;16.57;;;;;;;-4.74;100.00;97485.25;5093141;28;20462;-71
2022/12/13 00:04:07;;;;;;;26.93;16.37;;;;;;;-4.69;100.00;97477.88;5093143;28;20432;-71
2022/12/13 00:06:34;;;;;;;21.23;15.63;;;;;;;-4.69;100.00;97472.69;5093097;28;20440;-71
2022/12/13 00:09:01;;;;;;;24.53;15.83;;;;;;;-4.73;100.00;97476.53;5093119;28;20438;-71
2022/12/13 00:11:28;;;;;;;24.00;15.50;;;;;;;-4.73;100.00;97475.69;5093823;28;20487;-72
2022/12/13 00:13:55;;;;;;;24.80;16.00;;;;;;;-4.66;100.00;97475.00;5096827;28;20442;-71
2022/12/13 00:16:22;;;;;;;22.80;15.33;;;;;;;-4.63;100.00;97468.72;5096684;28;20942;-71
2022/12/13 00:18:58;;;;;;;23.13;15.27;;;;;;;-4.68;100.00;97473.50;5096436;28;20451;-71
2022/12/13 00:21:27;;;;;;;24.57;15.17;;;;;;;-4.62;100.00;97473.75;5096728;28;20560;-71
2022/12/13 00:23:54;;;;;;;22.50;15.03;;;;;;;-4.59;100.00;97476.09;5096600;28;20442;-72
2022/12/13 00:26:23;;;;;;;24.23;14.93;;;;;;;-4.71;100.00;97473.81;5096628;28;20440;-71
2022/12/13 00:28:50;;;;;;;25.00;15.03;;;;;;;-4.70;100.00;97476.22;5096503;28;20437;-71
2022/12/13 00:31:18;;;;;;;22.87;15.47;;;;;;;-4.90;100.00;97461.66;5096354;28;20519;-72
2022/12/13 00:33:45;;;;;;;20.83;15.30;;;;;;;-4.90;100.00;97476.38;5096141;28;20447;-71
2022/12/13 00:36:11;;;;;;;26.27;15.53;;;;;;;-4.80;100.00;97469.44;5096337;28;20435;-71
2022/12/13 00:38:38;;;;;;;21.80;15.10;;;;;;;-4.80;100.00;97467.66;5096431;28;20442;-71
2022/12/13 00:41:17;;;;;;;27.53;17.10;;;;;;;-4.86;100.00;97476.00;5096146;28;20464;-71
2022/12/13 00:43:44;;;;;;;26.30;15.27;;;;;;;-4.94;100.00;97465.50;5095941;28;20447;-71
2022/12/13 00:46:16;;;;;;;22.57;16.07;;;;;;;-5.01;100.00;97464.41;5096190;28;20440;-71
2022/12/13 00:48:45;;;;;;;23.30;15.83;;;;;;;-5.04;100.00;97463.84;5096142;28;20526;-71
2022/12/13 00:51:12;;;;;;;24.23;16.43;;;;;;;-4.98;100.00;97458.94;5095646;28;20997;-71
2022/12/13 00:53:38;;;;;;;25.70;16.47;;;;;;;-5.04;100.00;97456.06;5095993;28;20448;-71
2022/12/13 00:56:11;;;;;;;22.17;15.10;;;;;;;-5.07;100.00;97446.81;5095685;28;20443;-71
2022/12/13 00:58:37;;;;;;;26.33;16.40;;;;;;;-5.07;100.00;97441.63;5096245;28;20428;-71
2022/12/13 01:01:06;;;;;;;25.23;16.40;;;;;;;-5.02;100.00;97439.44;5095819;28;20456;-71
2022/12/13 01:03:33;;;;;;;22.73;15.97;;;;;;;-5.02;100.00;97434.25;5095826;28;20440;-71
2022/12/13 01:06:01;;;;;;;26.37;16.03;;;;;;;-4.99;100.00;97438.34;5095792;28;20440;-71
2022/12/13 01:08:28;;;;;;;25.30;16.00;;;;;;;-5.03;100.00;97432.63;5095445;28;20428;-71
2022/12/13 01:10:55;;;;;;;24.30;16.63;;;;;;;-5.10;100.00;97430.72;5095251;28;20995;-71
2022/12/13 01:13:21;;;;;;;25.20;17.13;;;;;;;-5.06;100.00;97426.91;5095662;28;20525;-71
2022/12/13 01:15:48;;;;;;;24.77;16.57;;;;;;;-5.10;100.00;97431.56;5095643;28;20432;-71
2022/12/13 01:18:17;;;;;;;22.77;16.97;;;;;;;-5.11;100.00;97427.31;5095525;28;20441;-71
2022/12/13 01:20:44;;;;;;;26.43;16.77;;;;;;;-5.15;100.00;97435.50;5095477;28;20459;-71
2022/12/13 01:23:10;;;;;;;29.73;17.53;;;;;;;-5.10;100.00;97433.31;5094665;28;20439;-71
2022/12/13 01:25:37;;;;;;;26.83;15.77;;;;;;;-5.13;100.00;97442.19;5095423;28;20436;-71
2022/12/13 01:28:04;;;;;;;25.63;17.73;;;;;;;-5.15;100.00;97441.50;5095348;28;20466;-71
2022/12/13 01:30:30;;;;;;;22.03;16.57;;;;;;;-5.13;100.00;97442.19;5095215;28;20478;-71
2022/12/13 01:32:56;;;;;;;26.17;16.83;;;;;;;-5.13;100.00;97443.94;5095235;28;20450;-71
2022/12/13 01:35:23;;;;;;;21.43;15.47;;;;;;;-5.14;100.00;97443.16;5095171;28;20443;-71
2022/12/13 01:37:49;;;;;;;21.73;15.90;;;;;;;-5.05;100.00;97444.09;5094824;28;20439;-71
2022/12/13 01:40:16;;;;;;;25.37;16.50;;;;;;;-5.04;100.00;97438.78;5094787;28;20923;-71
2022/12/13 01:42:42;;;;;;;24.47;16.10;;;;;;;-5.11;100.00;97432.47;5095020;28;20456;-71
2022/12/13 01:45:27;;;;;;;23.50;16.07;;;;;;;-5.16;100.00;97426.09;5094755;28;20935;-71
2022/12/13 01:48:07;;;;;;;25.47;15.97;;;;;;;-5.16;100.00;97426.91;5095045;28;20431;-71
2022/12/13 01:50:41;;;;;;;22.63;15.87;;;;;;;-5.15;100.00;97427.72;5094770;28;20464;-71
2022/12/13 01:53:10;;;;;;;24.53;15.60;;;;;;;-5.23;100.00;97433.59;5077020;28;20426;-71
2022/12/13 01:55:39;;;;;;;25.40;17.17;;;;;;;-5.19;100.00;97432.38;5094876;28;20440;-71
2022/12/13 01:58:05;;;;;;;24.57;16.13;;;;;;;-5.22;100.00;97439.59;5094467;28;20444;-71
2022/12/13 02:00:35;;;;;;;22.23;16.93;;;;;;;-5.27;100.00;97419.28;5094669;28;20433;-72
2022/12/13 02:03:03;;;;;;;22.63;15.93;;;;;;;-5.29;100.00;97431.53;5094736;28;20443;-71
2022/12/13 02:05:54;;;;;;;27.03;17.00;;;;;;;-5.43;100.00;97424.19;5094647;28;20432;-71
2022/12/13 02:08:22;;;;;;;25.87;16.23;;;;;;;-5.33;100.00;97426.78;5094605;28;20416;-71
2022/12/13 02:10:48;;;;;;;24.77;16.27;;;;;;;-5.33;100.00;97425.00;5094312;28;20484;-71
2022/12/13 02:13:14;;;;;;;26.13;16.00;;;;;;;-5.34;100.00;97425.16;5094481;28;20441;-71
2022/12/13 02:15:59;;;;;;;26.13;16.77;;;;;;;-5.27;100.00;97421.88;5094713;28;20440;-71
2022/12/13 02:18:49;;;;;;;29.10;16.70;;;;;;;-5.30;100.00;97422.13;5076477;28;20776;-71
2022/12/13 02:21:23;;;;;;;25.60;16.80;;;;;;;-5.35;100.00;97408.78;5088366;28;20468;-71
2022/12/13 02:24:26;;;;;;;26.50;17.07;;;;;;;-5.40;100.00;97407.56;5094202;28;20494;-71
2022/12/13 02:27:20;;;;;;;24.13;16.10;;;;;;;-5.46;100.00;97408.09;5094267;28;20424;-71
2022/12/13 02:30:31;;;;;;;27.30;16.80;;;;;;;-5.43;100.00;97408.63;5094363;28;20425;-71
2022/12/13 02:33:25;;;;;;;28.23;16.90;;;;;;;-5.46;100.00;97411.53;5071343;28;20763;-71
2022/12/13 02:35:52;;;;;;;22.97;16.00;;;;;;;-5.45;100.00;97400.19;5075678;28;20429;-71
2022/12/13 02:38:29;;;;;;;25.70;16.50;;;;;;;-5.44;100.00;97412.19;5094032;28;20444;-71
2022/12/13 02:41:06;;;;;;;25.00;17.07;;;;;;;-5.38;100.00;97400.47;5093709;28;21043;-71
2022/12/13 02:43:45;;;;;;;24.53;17.07;;;;;;;-5.39;100.00;97401.44;5076088;28;20451;-71
2022/12/13 02:46:13;;;;;;;25.83;16.60;;;;;;;-5.44;100.00;97401.84;5076649;28;20428;-71
2022/12/13 02:48:42;;;;;;;27.57;16.43;;;;;;;-5.44;100.00;97393.22;5059580;28;20462;-71
2022/12/13 02:51:11;;;;;;;24.07;16.87;;;;;;;-5.47;100.00;97402.09;5093289;28;20492;-71
2022/12/13 02:53:40;;;;;;;24.73;16.53;;;;;;;-5.50;100.00;97397.22;5075785;28;20432;-71
2022/12/13 02:56:07;;;;;;;28.17;17.63;;;;;;;-5.57;100.00;97403.06;5093827;28;20436;-71
2022/12/13 02:58:42;;;;;;;24.77;17.00;;;;;;;-5.47;100.00;97402.09;5094007;28;20432;-71
2022/12/13 03:01:32;;;;;;;21.77;15.50;;;;;;;-5.54;100.00;97401.03;5076624;28;20919;-71
2022/12/13 03:06:28;;;;;;;24.33;16.00;;;;;;;-5.48;100.00;97408.22;5087793;28;20955;-71
2022/12/13 03:07:32;;;;;;;27.23;16.60;;;;;;;-5.55;100.00;97404.56;5076153;28;20436;-71
2022/12/13 03:10:13;;;;;;;23.90;15.53;;;;;;;-5.60;100.00;97396.41;5093530;28;20538;-71
2022/12/13 03:15:53;;;;;;;28.27;17.67;;;;;;;-5.66;100.00;97381.38;5093695;28;20386;-71
2022/12/13 03:18:22;;;;;;;26.27;17.23;;;;;;;-5.71;100.00;97382.72;5093534;28;20802;-71
2022/12/13 03:20:54;;;;;;;25.03;15.83;;;;;;;-5.75;100.00;97379.59;5093504;28;20517;-71
2022/12/13 03:23:21;;;;;;;28.37;17.13;;;;;;;-5.81;100.00;97376.75;5093241;28;20432;-71
2022/12/13 03:25:50;;;;;;;27.13;16.70;;;;;;;-5.83;100.00;97366.53;5093522;28;20440;-71
2022/12/13 03:28:17;;;;;;;25.00;16.03;;;;;;;-5.79;100.00;97362.69;5093134;28;20436;-71
2022/12/13 03:30:43;;;;;;;26.43;17.20;;;;;;;-5.73;100.00;97374.28;5093323;28;20491;-71
2022/12/13 03:33:10;;;;;;;26.77;16.83;;;;;;;-5.79;100.00;97374.84;5093356;28;20438;-71
2022/12/13 03:35:37;;;;;;;24.70;16.07;;;;;;;-5.64;100.00;97373.47;5093062;28;20440;-71
2022/12/13 03:38:04;;;;;;;27.60;17.77;;;;;;;-5.75;100.00;97373.63;5093389;28;20436;-71
2022/12/13 03:40:32;;;;;;;27.90;16.23;;;;;;;-5.71;100.00;97369.78;5092931;28;20440;-71
2022/12/13 03:42:58;;;;;;;25.20;16.77;;;;;;;-5.65;100.00;97370.06;5093241;28;20931;-71
2022/12/13 03:45:25;;;;;;;25.60;16.70;;;;;;;-5.65;100.00;97359.72;5093204;28;20436;-71
2022/12/13 03:47:51;;;;;;;29.47;17.40;;;;;;;-5.71;100.00;97367.19;5096388;28;20432;-71
2022/12/13 03:50:18;;;;;;;27.50;17.37;;;;;;;-5.67;100.00;97368.56;5096932;28;20446;-71
2022/12/13 03:52:46;;;;;;;24.60;16.83;;;;;;;-5.71;100.00;97373.19;5096982;28;20472;-71
2022/12/13 03:55:13;;;;;;;22.07;15.60;;;;;;;-5.69;100.00;97366.13;5096785;28;20527;-71
2022/12/13 03:57:39;;;;;;;26.33;17.10;;;;;;;-5.72;100.00;97365.56;5097083;28;20433;-71
2022/12/13 04:00:06;;;;;;;28.40;16.90;;;;;;;-5.73;100.00;97363.94;5097033;28;20440;-71
2022/12/13 04:02:33;;;;;;;24.23;16.30;;;;;;;-5.79;100.00;97354.94;5096638;28;20462;-71
2022/12/13 04:04:59;;;;;;;29.27;18.37;;;;;;;-5.77;100.00;97352.22;5096755;28;20520;-71
2022/12/13 04:07:26;;;;;;;25.40;17.30;;;;;;;-5.84;100.00;97351.19;5096349;28;20886;-71
2022/12/13 04:09:52;;;;;;;24.20;16.40;;;;;;;-5.76;100.00;97352.09;5096879;28;20439;-71
2022/12/13 04:15:02;;;;;;;26.80;16.77;;;;;;;-5.70;100.00;97361.09;5096195;28;20751;-71
2022/12/13 04:17:28;;;;;;;25.27;16.17;;;;;;;-5.78;100.00;97359.19;5096203;28;20926;-71
2022/12/13 04:19:55;;;;;;;27.17;17.87;;;;;;;-5.80;100.00;97350.72;5096332;28;20458;-71
2022/12/13 04:22:21;;;;;;;28.80;17.73;;;;;;;-5.78;100.00;97354.00;5096347;28;20459;-71
2022/12/13 04:24:47;;;;;;;30.10;18.47;;;;;;;-5.68;100.00;97352.25;5096395;28;20443;-71
2022/12/13 04:27:14;;;;;;;27.47;16.93;;;;;;;-5.72;100.00;97348.28;5096439;28;20436;-71
2022/12/13 04:29:40;;;;;;;23.97;16.17;;;;;;;-5.67;100.00;97350.44;5096298;28;20432;-72
2022/12/13 04:32:07;;;;;;;26.40;16.73;;;;;;;-5.64;100.00;97351.00;5095525;28;20476;-71
2022/12/13 04:34:33;;;;;;;24.53;16.47;;;;;;;-5.60;100.00;97348.97;5095702;28;20943;-71
2022/12/13 04:36:59;;;;;;;25.27;15.67;;;;;;;-5.55;100.00;97349.38;5095687;28;20988;-71
2022/12/13 04:39:26;;;;;;;26.07;17.13;;;;;;;-5.55;100.00;97350.19;5096077;28;20794;-71
2022/12/13 04:41:53;;;;;;;21.83;15.30;;;;;;;-5.55;100.00;97344.19;5096408;28;20452;-71
2022/12/13 04:44:20;;;;;;;26.00;15.80;;;;;;;-5.66;100.00;97344.34;5096046;28;20436;-71
2022/12/13 04:46:46;;;;;;;23.07;14.97;;;;;;;-5.52;100.00;97346.50;5095917;28;20440;-71
2022/12/13 04:49:12;;;;;;;25.80;15.97;;;;;;;-5.61;100.00;97349.91;5095502;28;20447;-71
2022/12/13 04:51:39;;;;;;;24.90;15.97;;;;;;;-5.59;100.00;97341.06;5095528;28;20480;-71
2022/12/13 04:54:06;;;;;;;25.67;15.10;;;;;;;-5.61;100.00;97345.53;5095773;28;20432;-71
2022/12/13 04:56:33;;;;;;;22.30;15.33;;;;;;;-5.63;100.00;97346.63;5095869;28;20505;-71
2022/12/13 04:58:59;;;;;;;22.33;15.27;;;;;;;-5.70;100.00;97342.97;5095518;28;20440;-71
2022/12/13 05:01:25;;;;;;;24.17;15.53;;;;;;;-5.67;100.00;97345.28;5095543;28;20460;-71
2022/12/13 05:03:52;;;;;;;26.63;16.10;;;;;;;-5.73;100.00;97348.41;5095338;28;20432;-71
2022/12/13 05:06:18;;;;;;;21.70;15.07;;;;;;;-5.74;100.00;97339.81;5095400;28;20514;-71
2022/12/13 05:08:44;;;;;;;23.43;15.60;;;;;;;-5.70;100.00;97342.97;5095158;28;20436;-71
2022/12/13 05:11:11;;;;;;;24.57;15.27;;;;;;;-5.80;100.00;97342.97;5095376;28;20476;-71
2022/12/13 05:13:38;;;;;;;24.57;15.70;;;;;;;-5.83;100.00;97345.03;5095020;28;20932;-71
2022/12/13 05:16:07;;;;;;;24.23;15.23;;;;;;;-5.84;100.00;97338.25;5095909;28;20445;-71
2022/12/13 05:18:35;;;;;;;22.43;15.13;;;;;;;-5.90;100.00;97344.75;5094939;28;20437;-71
2022/12/13 05:21:07;;;;;;;24.13;15.33;;;;;;;-5.89;100.00;97343.81;5095116;28;20456;-71
2022/12/13 05:23:33;;;;;;;23.80;15.27;;;;;;;-5.87;100.00;97339.31;5095234;28;20436;-71
2022/12/13 05:26:00;;;;;;;23.93;15.53;;;;;;;-5.92;100.00;97341.47;5094710;28;20442;-71
2022/12/13 05:28:28;;;;;;;24.30;16.13;;;;;;;-5.91;100.00;97337.13;5095043;28;20440;-71
2022/12/13 05:30:57;;;;;;;20.10;13.97;;;;;;;-5.83;100.00;97342.44;5095043;28;20547;-71
2022/12/13 05:33:24;;;;;;;23.63;14.83;;;;;;;-5.80;100.00;97340.38;5094767;28;20439;-71
2022/12/13 05:35:51;;;;;;;20.80;14.67;;;;;;;-5.81;100.00;97343.94;5094983;28;20535;-71
2022/12/13 05:38:17;;;;;;;20.00;14.60;;;;;;;-5.77;100.00;97334.94;5094954;28;20432;-71
2022/12/13 05:40:44;;;;;;;24.00;14.47;;;;;;;-5.79;100.00;97336.81;5094228;28;20990;-71
2022/12/13 05:43:11;;;;;;;20.70;14.10;;;;;;;-5.78;100.00;97332.47;5094023;28;20934;-71
2022/12/13 05:45:38;;;;;;;19.00;12.87;;;;;;;-5.79;100.00;97333.44;5094123;28;20840;-71
2022/12/13 05:48:04;;;;;;;23.57;15.13;;;;;;;-5.89;100.00;97330.88;5094102;28;20437;-71
2022/12/13 05:50:31;;;;;;;20.40;14.27;;;;;;;-5.88;100.00;97323.94;5094100;28;20440;-71
2022/12/13 05:52:57;;;;;;;22.37;13.60;;;;;;;-5.80;100.00;97337.78;5093648;28;20549;-71
2022/12/13 05:55:23;;;;;;;22.97;14.63;;;;;;;-5.82;100.00;97328.56;5094138;28;20472;-71
2022/12/13 05:57:50;;;;;;;20.70;13.60;;;;;;;-5.74;100.00;97328.66;5094405;28;20443;-71
2022/12/13 06:00:16;;;;;;;19.93;12.70;;;;;;;-5.82;100.00;97319.03;5094405;28;20436;-71
2022/12/13 06:02:44;;;;;;;23.77;14.03;;;;;;;-5.79;100.00;97318.72;5093994;28;20457;-71
2022/12/13 06:05:11;;;;;;;21.43;13.63;;;;;;;-5.80;100.00;97321.47;5093940;28;20523;-71
2022/12/13 06:07:38;;;;;;;22.30;14.23;;;;;;;-5.84;100.00;97310.56;5093717;28;20959;-71
2022/12/13 06:10:06;;;;;;;19.87;13.63;;;;;;;-5.82;100.00;97313.03;5093374;28;20443;-71
2022/12/13 06:12:36;;;;;;;22.43;14.63;;;;;;;-5.84;100.00;97323.50;5093780;28;20487;-70
2022/12/13 06:15:03;;;;;;;18.77;13.23;;;;;;;-5.84;100.00;97320.91;5093963;28;20432;-71
2022/12/13 06:17:34;;;;;;;19.80;13.10;;;;;;;-5.82;100.00;97319.03;5093731;28;20441;-71
2022/12/13 06:20:00;;;;;;;18.87;12.37;;;;;;;-5.77;100.00;97324.59;5093664;28;20790;-71
2022/12/13 06:22:27;;;;;;;21.60;12.67;;;;;;;-5.76;100.00;97327.97;5093583;28;20458;-71
2022/12/13 06:24:54;;;;;;;18.77;13.00;;;;;;;-5.74;100.00;97329.47;5094061;28;20443;-71
2022/12/13 06:27:21;;;;;;;22.77;13.60;;;;;;;-5.68;100.00;97334.13;5093114;28;20443;-72
2022/12/13 06:29:47;;;;;;;18.77;12.73;;;;;;;-5.73;100.00;97322.53;5093535;28;20443;-71
2022/12/13 06:32:13;;;;;;;19.60;12.97;;;;;;;-5.66;100.00;97319.25;5093149;28;20903;-71
2022/12/13 06:34:40;;;;;;;20.80;13.47;;;;;;;-5.69;100.00;97314.38;5093348;28;20447;-71
2022/12/13 06:37:08;;;;;;;22.37;13.07;;;;;;;-5.69;100.00;97314.38;5093097;28;20436;-71
2022/12/13 06:39:35;;;;;;;19.90;13.53;;;;;;;-5.73;100.00;97318.19;5093139;28;20444;-71
2022/12/13 06:42:04;;;;;;;21.03;14.07;;;;;;;-5.75;100.00;97325.25;5092599;28;20480;-70
2022/12/13 06:44:31;;;;;;;21.23;12.57;;;;;;;-5.71;100.00;97331.78;5092620;28;20447;-70
2022/12/13 06:46:58;;;;;;;21.47;14.27;;;;;;;-5.85;100.00;97321.88;5092798;28;20432;-70
2022/12/13 06:49:24;;;;;;;19.47;14.10;;;;;;;-5.90;100.00;97316.31;5091735;28;20437;-70
2022/12/13 06:51:50;;;;;;;21.33;13.40;;;;;;;-5.79;100.00;97323.09;5092693;28;20516;-70
2022/12/13 06:54:17;;;;;;;18.57;12.93;;;;;;;-5.78;100.00;97335.91;5093187;28;20450;-70
2022/12/13 06:56:43;;;;;;;20.67;14.17;;;;;;;-5.82;100.00;97328.56;5093207;28;20432;-70
2022/12/13 06:59:10;;;;;;;20.10;14.47;;;;;;;-5.86;100.00;97340.97;5093231;28;20471;-70
2022/12/13 07:01:36;;;;;;;21.00;13.27;;;;;;;-5.92;100.00;97338.88;5092458;28;20467;-70
2022/12/13 07:04:02;;;;;;;20.73;13.47;;;;;;;-5.85;100.00;97345.16;5092653;28;20436;-70
2022/12/13 07:06:29;;;;;;;22.07;13.90;;;;;;;-5.83;100.00;97338.06;5092881;28;20443;-70
2022/12/13 07:08:57;;;;;;;20.40;13.67;;;;;;;-5.83;100.00;97340.66;5092705;28;20441;-70
2022/12/13 07:11:26;;;;;;;18.97;13.23;;;;;;;-5.85;100.00;97344.34;5092445;28;20476;-71
2022/12/13 07:13:53;;;;;;;20.93;14.27;;;;;;;-5.85;100.00;97360.69;5092541;28;20440;-71
2022/12/13 07:16:21;;;;;;;22.00;13.43;;;;;;;-5.83;100.00;97352.81;5092907;28;20432;-70
2022/12/13 07:18:48;;;;;;;23.07;13.23;;;;;;;-5.72;100.00;97353.47;5093142;28;20432;-70
2022/12/13 07:21:15;;;;;;;21.63;13.67;;;;;;;-5.69;100.00;97344.59;5093243;28;20463;-70
2022/12/13 07:23:42;;;;;;;22.27;14.27;;;;;;;-5.73;100.00;97357.00;5097102;28;20436;-70
2022/12/13 07:26:08;;;;;;;18.50;13.37;;;;;;;-5.78;100.00;97351.41;5096761;28;20435;-70
2022/12/13 07:28:36;;;;;;;26.83;14.13;;;;;;;-5.70;100.00;97348.16;5096594;28;20442;-71
2022/12/13 07:31:05;;;;;;;21.87;14.00;;;;;;;-5.62;100.00;97348.25;5096790;28;20462;-71
2022/12/13 07:33:32;;;;;;;23.80;14.13;;;;;;;-5.70;100.00;97348.16;5097184;28;20437;-71
2022/12/13 07:36:02;;;;;;;19.80;13.23;;;;;;;-5.53;100.00;97345.69;5097039;28;20447;-71
2022/12/13 07:38:28;;;;;;;21.87;13.37;;;;;;;-5.53;100.00;97350.88;5096742;28;20443;-71
2022/12/13 07:40:57;;;;;;;20.33;13.23;;;;;;;-5.51;100.00;97348.97;5096831;28;20461;-71
2022/12/13 07:43:24;;;;;;;23.20;13.63;;;;;;;-5.45;100.00;97355.34;5096678;28;20432;-71
2022/12/13 07:45:54;;;;;;;19.77;13.40;;;;;;;-5.49;100.00;97354.81;5096722;28;20957;-71
2022/12/13 07:48:20;;;;;;;20.50;13.03;;;;;;;-5.47;100.00;97360.66;5096788;28;20523;-71
2022/12/13 07:50:47;;;;;;;19.20;13.50;;;;;;;-5.43;100.00;97362.03;5096572;28;20456;-71
2022/12/13 07:53:13;;;;;;;22.13;13.63;;;;;;;-5.40;100.00;97368.69;5096495;28;20464;-71
2022/12/13 07:55:40;;;;;;;17.90;12.80;;;;;;;-5.38;100.00;97365.00;5095927;28;20446;-71
2022/12/13 07:58:09;;;;;;;20.97;13.07;;;;;;;-5.32;100.00;97380.03;5096692;28;20816;-70
2022/12/13 08:00:37;;;;;;;20.13;13.10;;;;;;;-5.36;100.00;97373.50;5096352;28;20522;-71
2022/12/13 08:03:04;;;;;;;17.47;12.40;;;;;;;-5.27;100.00;97382.19;5096580;28;20425;-71
2022/12/13 08:05:30;;;;;;;21.60;13.93;;;;;;;-5.19;100.00;97377.16;5096587;28;20447;-71
2022/12/13 08:07:57;;;;;;;20.57;13.23;;;;;;;-5.21;100.00;97379.88;5096415;28;20444;-71
2022/12/13 08:10:23;;;;;;;20.40;13.30;;;;;;;-5.15;100.00;97381.09;5096235;28;20531;-71
2022/12/13 08:12:50;;;;;;;20.97;13.63;;;;;;;-5.13;100.00;97380.00;5096252;28;20468;-71
2022/12/13 08:15:17;;;;;;;21.50;13.37;;;;;;;-5.19;100.00;97380.56;5095590;28;20442;-71
2022/12/13 08:17:43;;;;;;;19.70;13.13;;;;;;;-5.16;100.00;97380.28;5095792;28;20798;-71
2022/12/13 08:20:10;;;;;;;20.30;13.73;;;;;;;-5.07;100.00;97384.63;5096095;28;20432;-71
2022/12/13 08:22:36;;;;;;;19.90;12.60;;;;;;;-5.12;100.00;97378.25;5095394;28;20982;-71
2022/12/13 08:25:03;;;;;;;20.10;13.23;;;;;;;-5.11;100.00;97385.84;5095667;28;20443;-71
2022/12/13 08:27:30;;;;;;;19.97;12.97;;;;;;;-5.09;100.00;97385.72;5095334;28;20442;-71
2022/12/13 08:29:56;;;;;;;20.23;12.73;;;;;;;-4.97;100.00;97379.44;5095722;28;20448;-71
2022/12/13 08:32:23;;;;;;;19.73;13.27;;;;;;;-5.03;100.00;97378.19;5095149;28;20486;-71
2022/12/13 08:34:49;;;;;;;18.83;12.60;;;;;;;-5.02;100.00;97385.00;5095649;28;20440;-71
2022/12/13 08:37:16;;;;;;;21.10;13.77;;;;;;;-4.97;100.00;97385.41;5095538;28;20440;-71
2022/12/13 08:39:43;;;;;;;19.80;13.83;;;;;;;-4.99;99.96;97382.16;5096107;28;20436;-71
2022/12/13 08:42:16;;;;;;;20.33;13.57;;;;;;;-4.91;99.90;97374.50;5095124;28;20452;-71
2022/12/13 08:44:42;;;;;;;19.00;13.27;;;;;;;-4.93;99.92;97379.00;5094864;28;20489;-71
2022/12/13 08:47:09;;;;;;;21.37;14.03;;;;;;;-5.03;100.00;97385.97;5095313;28;20485;-71
2022/12/13 08:49:35;;;;;;;16.90;11.90;;;;;;;-4.92;100.00;97383.25;5095027;28;20444;-71
2022/12/13 08:52:02;;;;;;;21.47;13.43;;;;;;;-4.92;100.00;97387.59;5094782;28;20991;-71
2022/12/13 08:54:28;;;;;;;20.33;13.43;;;;;;;-4.86;100.00;97387.03;5095375;28;20440;-71
2022/12/13 08:56:54;;;;;;;22.03;13.00;;;;;;;-4.75;100.00;97392.88;5095128;28;20536;-71
2022/12/13 08:59:23;;;;;;;21.90;14.73;;;;;;;-4.83;100.00;97379.81;5095210;28;20501;-71
2022/12/13 09:01:49;;;;;;;18.30;13.07;;;;;;;-4.77;100.00;97375.81;5094800;28;20460;-71
2022/12/13 09:04:16;;;;;;;19.20;13.23;;;;;;;-4.76;100.00;97378.28;5095108;28;20947;-71
2022/12/13 09:06:43;;;;;;;20.23;12.97;;;;;;;-4.54;100.00;97377.94;5095400;28;20432;-71
2022/12/13 09:09:10;;;;;;;19.17;13.77;;;;;;;-4.41;99.47;97375.00;5095330;28;20446;-71
2022/12/13 09:11:38;;;;;;;16.70;12.33;;;;;;;-4.30;98.81;97380.03;5094766;28;20478;-71
2022/12/13 09:14:05;;;;;;;16.73;12.13;;;;;;;-4.17;98.24;97370.94;5094694;28;20443;-72
2022/12/13 09:16:35;;;;;;;19.73;12.80;;;;;;;-4.15;98.17;97371.63;5095173;28;20436;-71
2022/12/13 09:19:01;;;;;;;18.77;12.10;;;;;;;-4.04;95.16;97374.00;5095230;28;20452;-71
2022/12/13 09:21:28;;;;;;;20.47;12.33;;;;;;;-4.05;95.49;97374.97;5094622;28;20978;-71
2022/12/13 09:23:55;;;;;;;18.93;12.43;;;;;;;-3.89;93.93;97371.75;5094627;28;20436;-71
2022/12/13 09:26:21;;;;;;;19.23;13.10;;;;;;;-3.93;94.91;97373.00;5094880;28;20432;-71
2022/12/13 09:28:48;;;;;;;18.77;12.33;;;;;;;-3.84;94.50;97378.09;5094731;28;20440;-71
2022/12/13 09:31:17;;;;;;;20.80;13.30;;;;;;;-3.85;94.33;97376.47;5094838;28;20448;-71
2022/12/13 09:33:45;;;;;;;16.00;12.00;;;;;;;-3.76;93.51;97380.78;5094771;28;20480;-71
2022/12/13 09:36:14;;;;;;;20.33;13.10;;;;;;;-3.73;94.36;97369.28;5094363;28;20444;-71
2022/12/13 09:38:41;;;;;;;17.67;12.17;;;;;;;-3.78;92.87;97372.34;5095048;28;20436;-71
2022/12/13 09:41:32;;;;;;;18.80;12.53;;;;;;;-3.69;93.83;97381.84;5094300;28;20463;-71
2022/12/13 09:44:05;;;;;;;15.83;11.47;;;;;;;-3.64;93.61;97384.81;5093691;28;20442;-71
2022/12/13 09:46:39;;;;;;;20.23;12.53;;;;;;;-3.74;93.32;97386.69;5094823;28;20432;-71
2022/12/13 09:49:14;;;;;;;16.67;11.60;;;;;;;-3.65;93.70;97393.59;5094698;28;20421;-71
2022/12/13 09:51:41;;;;;;;17.30;12.73;;;;;;;-3.59;93.31;97384.34;5094113;28;20482;-71
2022/12/13 09:54:07;;;;;;;17.07;11.73;;;;;;;-3.28;91.49;97385.63;5094069;28;20527;-71
2022/12/13 09:56:34;;;;;;;17.83;11.53;;;;;;;-3.27;91.61;97376.84;5094351;28;20443;-72
2022/12/13 09:59:01;;;;;;;16.03;10.90;;;;;;;-3.20;90.35;97368.31;5093952;28;20799;-71
2022/12/13 10:01:27;;;;;;;17.00;10.97;;;;;;;-3.34;90.18;97371.44;5094201;28;20456;-71
2022/12/13 10:03:59;;;;;;;15.23;10.77;;;;;;;-3.25;88.28;97373.13;5094311;28;20439;-71
2022/12/13 10:06:27;;;;;;;17.80;10.33;;;;;;;-3.19;89.50;97372.56;5093956;28;20771;-71
2022/12/13 10:08:57;;;;;;;15.93;10.50;;;;;;;-3.18;89.11;97368.16;5093615;28;20440;-71
2022/12/13 10:11:25;;;;;;;16.80;10.63;;;;;;;-3.19;88.25;97371.72;5076092;28;20529;-71
2022/12/13 10:14:05;;;;;;;17.10;10.83;;;;;;;-3.24;86.10;97367.00;5093713;28;20537;-71
2022/12/13 10:16:34;;;;;;;13.47;9.73;;;;;;;-3.27;85.99;97356.06;5094319;28;20426;-71
2022/12/13 10:19:35;;;;;;;13.63;9.77;;;;;;;-3.21;86.29;97355.47;5093641;28;20485;-71
2022/12/13 10:22:04;;;;;;;15.17;9.67;;;;;;;-2.97;83.38;97353.88;5079595;28;20476;-71
2022/12/13 10:24:52;;;;;;;16.30;10.97;;;;;;;-2.82;84.18;97349.75;5075638;28;20902;-71
2022/12/13 10:27:25;;;;;;;16.20;10.43;;;;;;;-2.83;82.91;97353.31;5093917;28;20798;-71
2022/12/13 10:30:09;;;;;;;16.30;9.57;;;;;;;-2.86;83.33;97344.97;5094664;28;20427;-71
2022/12/13 10:32:57;;;;;;;14.37;9.70;;;;;;;-3.09;84.00;97351.66;5093649;28;20476;-71
2022/12/13 10:35:27;;;;;;;15.37;9.73;;;;;;;-2.80;83.67;97345.19;5093650;28;20427;-71
2022/12/13 10:37:55;;;;;;;15.07;10.03;;;;;;;-2.73;83.64;97343.63;5093582;28;20446;-71
2022/12/13 10:40:32;;;;;;;16.63;10.03;;;;;;;-2.95;85.24;97332.91;5093310;28;20436;-71
2022/12/13 10:43:16;;;;;;;17.93;10.23;;;;;;;-2.93;83.56;97323.19;5093623;28;20427;-71
2022/12/13 10:45:56;;;;;;;14.77;9.63;;;;;;;-2.87;83.13;97325.97;5093288;28;20949;-71
2022/12/13 10:48:26;;;;;;;17.13;9.27;;;;;;;-2.79;82.57;97328.63;5093349;28;20416;-71
2022/12/13 10:51:20;;;;;;;16.03;8.67;;;;;;;-2.77;80.80;97328.47;5093206;28;20989;-71
2022/12/13 10:53:55;;;;;;;14.20;8.70;;;;;;;-2.71;80.46;97331.25;5085290;28;20521;-72
2022/12/13 10:56:32;;;;;;;15.73;8.60;;;;;;;-2.77;80.39;97318.88;5093656;28;20489;-71
2022/12/13 10:59:30;;;;;;;15.47;8.70;;;;;;;-2.75;80.36;97324.72;5076824;28;20431;-71
2022/12/13 11:01:56;;;;;;;11.90;8.83;;;;;;;-2.65;79.85;97322.88;5079369;28;20468;-71
2022/12/13 11:04:30;;;;;;;13.43;8.73;;;;;;;-2.67;81.06;97329.19;5092867;28;20451;-71
2022/12/13 11:06:59;;;;;;;14.53;10.07;;;;;;;-2.58;79.94;97321.25;5093127;28;20450;-71
2022/12/13 11:09:27;;;;;;;14.10;9.47;;;;;;;-2.59;80.67;97327.44;5093030;28;20942;-71
2022/12/13 11:11:56;;;;;;;17.33;10.07;;;;;;;-2.35;82.09;97322.31;5092545;28;20982;-71
2022/12/13 11:14:27;;;;;;;14.77;9.47;;;;;;;-2.20;84.10;97325.97;5092948;28;20457;-71
2022/12/13 11:17:00;;;;;;;20.03;11.07;;;;;;;-2.08;81.83;97321.28;5075146;28;20423;-71
2022/12/13 11:19:40;;;;;;;17.50;10.57;;;;;;;-2.16;83.00;97319.47;5093238;28;20420;-71
2022/12/13 11:22:09;;;;;;;18.30;11.20;;;;;;;-2.01;81.89;97320.50;5093665;28;20462;-71
2022/12/13 11:24:42;;;;;;;18.87;10.93;;;;;;;-2.06;82.15;97308.91;5093167;28;20501;-71
2022/12/13 11:27:18;;;;;;;16.67;10.83;;;;;;;-2.02;83.21;97308.47;5092806;28;20451;-71
2022/12/13 11:30:15;;;;;;;18.40;11.47;;;;;;;-2.18;81.12;97300.59;5092803;28;20420;-71